Weather at Japura Airport

Public forecast

Using degrees Celsius for public forecast. Weather courtesy of forecast.io.

Closest aviation weather report (METAR) to Japura Airport

Closest report is Sultan Syarif Kasim II International Airport / Roesmin Nurjadin AFB, 72.3 nm (134.0 km) NW.

2024/06/19 03:30 (retrieved 20 minutes ago)

WIBB 190330Z 19006KT 160V220 CAVOK 30/24 Q1008 NOSIG

Closest aviation forecast (TAF) to Japura Airport

Forecast is more than 6 hours old.

Closest forecast is Nauru International Airport, 3,877.5 nm (7,181.2 km) E.

2024/06/18 18:00 (retrieved 10 hours ago)

TAF ANYN 181555Z 1818/1918 09006KT 9999 FEW020 RMK T 27 29 31 30 Q 1009 1011 1010 1008